sensor_id;sensor_type;location;lat;lon;timestamp;temperature;humidity
4578;DHT22;2301;47.354;8.528;2023-10-08T00:02:10;17.80;78.50
4578;DHT22;2301;47.354;8.528;2023-10-08T00:04:37;17.80;78.50
4578;DHT22;2301;47.354;8.528;2023-10-08T00:07:04;17.80;78.40
4578;DHT22;2301;47.354;8.528;2023-10-08T00:09:33;17.70;78.30
4578;DHT22;2301;47.354;8.528;2023-10-08T00:12:03;17.70;78.10
4578;DHT22;2301;47.354;8.528;2023-10-08T00:14:31;17.70;78.10
4578;DHT22;2301;47.354;8.528;2023-10-08T00:16:58;17.80;78.20
4578;DHT22;2301;47.354;8.528;2023-10-08T00:19:26;17.70;78.20
4578;DHT22;2301;47.354;8.528;2023-10-08T00:21:59;17.70;78.30
4578;DHT22;2301;47.354;8.528;2023-10-08T00:24:31;17.70;78.20
4578;DHT22;2301;47.354;8.528;2023-10-08T00:26:59;17.70;78.40
4578;DHT22;2301;47.354;8.528;2023-10-08T00:29:26;17.70;78.00
4578;DHT22;2301;47.354;8.528;2023-10-08T00:31:55;17.70;78.20
4578;DHT22;2301;47.354;8.528;2023-10-08T00:34:22;17.60;78.00
4578;DHT22;2301;47.354;8.528;2023-10-08T00:36:50;17.60;78.10
4578;DHT22;2301;47.354;8.528;2023-10-08T00:39:18;17.60;78.20
4578;DHT22;2301;47.354;8.528;2023-10-08T00:41:50;17.60;78.40
4578;DHT22;2301;47.354;8.528;2023-10-08T00:44:20;17.60;78.20
4578;DHT22;2301;47.354;8.528;2023-10-08T00:46:57;17.50;78.40
4578;DHT22;2301;47.354;8.528;2023-10-08T00:49:27;17.50;78.10
4578;DHT22;2301;47.354;8.528;2023-10-08T00:52:14;17.50;77.60
4578;DHT22;2301;47.354;8.528;2023-10-08T00:54:55;17.50;77.40
4578;DHT22;2301;47.354;8.528;2023-10-08T00:57:34;17.50;77.50
4578;DHT22;2301;47.354;8.528;2023-10-08T01:00:08;17.50;77.40
4578;DHT22;2301;47.354;8.528;2023-10-08T01:02:44;17.50;77.50
4578;DHT22;2301;47.354;8.528;2023-10-08T01:05:15;17.50;77.60
4578;DHT22;2301;47.354;8.528;2023-10-08T01:07:46;17.50;77.60
4578;DHT22;2301;47.354;8.528;2023-10-08T01:10:14;17.50;77.60
4578;DHT22;2301;47.354;8.528;2023-10-08T01:12:45;17.40;77.30
4578;DHT22;2301;47.354;8.528;2023-10-08T01:15:22;17.40;77.40
4578;DHT22;2301;47.354;8.528;2023-10-08T01:17:56;17.40;77.70
4578;DHT22;2301;47.354;8.528;2023-10-08T01:20:26;17.40;77.70
4578;DHT22;2301;47.354;8.528;2023-10-08T01:23:03;17.40;77.50
4578;DHT22;2301;47.354;8.528;2023-10-08T01:25:36;17.40;77.10
4578;DHT22;2301;47.354;8.528;2023-10-08T01:28:02;17.40;77.60
4578;DHT22;2301;47.354;8.528;2023-10-08T01:30:34;17.40;77.50
4578;DHT22;2301;47.354;8.528;2023-10-08T01:33:07;17.30;77.10
4578;DHT22;2301;47.354;8.528;2023-10-08T01:35:37;17.30;77.20
4578;DHT22;2301;47.354;8.528;2023-10-08T01:38:05;17.30;77.20
4578;DHT22;2301;47.354;8.528;2023-10-08T01:40:34;17.30;77.20
4578;DHT22;2301;47.354;8.528;2023-10-08T01:43:01;17.30;77.40
4578;DHT22;2301;47.354;8.528;2023-10-08T01:45:29;17.20;77.40
4578;DHT22;2301;47.354;8.528;2023-10-08T01:47:57;17.20;77.10
4578;DHT22;2301;47.354;8.528;2023-10-08T01:50:24;17.20;77.50
4578;DHT22;2301;47.354;8.528;2023-10-08T01:52:53;17.20;77.50
4578;DHT22;2301;47.354;8.528;2023-10-08T01:55:22;17.20;77.50
4578;DHT22;2301;47.354;8.528;2023-10-08T01:57:50;17.20;77.30
4578;DHT22;2301;47.354;8.528;2023-10-08T02:00:18;17.20;78.10
4578;DHT22;2301;47.354;8.528;2023-10-08T02:02:46;17.20;77.50
4578;DHT22;2301;47.354;8.528;2023-10-08T02:05:13;17.30;77.80
4578;DHT22;2301;47.354;8.528;2023-10-08T02:07:41;17.10;77.40
4578;DHT22;2301;47.354;8.528;2023-10-08T02:10:10;17.10;76.00
4578;DHT22;2301;47.354;8.528;2023-10-08T02:12:38;16.90;72.20
4578;DHT22;2301;47.354;8.528;2023-10-08T02:15:06;16.80;71.10
4578;DHT22;2301;47.354;8.528;2023-10-08T02:17:33;16.50;70.50
4578;DHT22;2301;47.354;8.528;2023-10-08T02:20:00;16.30;70.50
4578;DHT22;2301;47.354;8.528;2023-10-08T02:22:30;16.10;70.50
4578;DHT22;2301;47.354;8.528;2023-10-08T02:24:58;15.90;70.60
4578;DHT22;2301;47.354;8.528;2023-10-08T02:27:28;15.80;71.00
4578;DHT22;2301;47.354;8.528;2023-10-08T02:29:56;15.60;71.40
4578;DHT22;2301;47.354;8.528;2023-10-08T02:32:23;15.50;71.60
4578;DHT22;2301;47.354;8.528;2023-10-08T02:34:50;15.40;71.80
4578;DHT22;2301;47.354;8.528;2023-10-08T02:37:17;15.20;72.10
4578;DHT22;2301;47.354;8.528;2023-10-08T02:39:45;15.30;72.60
4578;DHT22;2301;47.354;8.528;2023-10-08T02:42:12;15.20;72.80
4578;DHT22;2301;47.354;8.528;2023-10-08T02:44:39;15.10;73.00
4578;DHT22;2301;47.354;8.528;2023-10-08T02:47:09;15.00;73.10
4578;DHT22;2301;47.354;8.528;2023-10-08T02:49:37;15.00;73.10
4578;DHT22;2301;47.354;8.528;2023-10-08T02:52:06;14.90;73.00
4578;DHT22;2301;47.354;8.528;2023-10-08T02:54:34;14.90;73.10
4578;DHT22;2301;47.354;8.528;2023-10-08T02:57:03;14.80;73.20
4578;DHT22;2301;47.354;8.528;2023-10-08T02:59:36;14.80;73.40
4578;DHT22;2301;47.354;8.528;2023-10-08T03:02:06;14.70;73.50
4578;DHT22;2301;47.354;8.528;2023-10-08T03:04:41;14.60;73.70
4578;DHT22;2301;47.354;8.528;2023-10-08T03:07:10;14.60;73.70
4578;DHT22;2301;47.354;8.528;2023-10-08T03:09:46;14.50;73.70
4578;DHT22;2301;47.354;8.528;2023-10-08T03:12:15;14.50;73.90
4578;DHT22;2301;47.354;8.528;2023-10-08T03:14:43;14.40;74.10
4578;DHT22;2301;47.354;8.528;2023-10-08T03:17:27;14.30;74.20
4578;DHT22;2301;47.354;8.528;2023-10-08T03:19:56;14.30;74.30
4578;DHT22;2301;47.354;8.528;2023-10-08T03:22:44;14.30;74.40
4578;DHT22;2301;47.354;8.528;2023-10-08T03:25:12;14.30;74.50
4578;DHT22;2301;47.354;8.528;2023-10-08T03:27:42;14.20;74.70
4578;DHT22;2301;47.354;8.528;2023-10-08T03:30:09;14.20;74.80
4578;DHT22;2301;47.354;8.528;2023-10-08T03:32:40;14.20;74.90
4578;DHT22;2301;47.354;8.528;2023-10-08T03:35:09;14.20;75.10
4578;DHT22;2301;47.354;8.528;2023-10-08T03:37:38;14.20;75.20
4578;DHT22;2301;47.354;8.528;2023-10-08T03:40:12;14.10;75.40
4578;DHT22;2301;47.354;8.528;2023-10-08T03:42:50;14.10;75.50
4578;DHT22;2301;47.354;8.528;2023-10-08T03:45:21;14.00;75.60
4578;DHT22;2301;47.354;8.528;2023-10-08T03:48:03;14.00;75.90
4578;DHT22;2301;47.354;8.528;2023-10-08T03:50:33;13.90;76.00
4578;DHT22;2301;47.354;8.528;2023-10-08T03:53:06;13.90;76.00
4578;DHT22;2301;47.354;8.528;2023-10-08T03:55:37;13.90;76.10
4578;DHT22;2301;47.354;8.528;2023-10-08T03:58:06;13.90;76.30
4578;DHT22;2301;47.354;8.528;2023-10-08T04:00:37;13.80;76.60
4578;DHT22;2301;47.354;8.528;2023-10-08T04:03:08;13.80;76.70
4578;DHT22;2301;47.354;8.528;2023-10-08T04:05:38;13.80;76.90
4578;DHT22;2301;47.354;8.528;2023-10-08T04:08:25;13.80;76.90
4578;DHT22;2301;47.354;8.528;2023-10-08T04:11:08;13.70;76.90
4578;DHT22;2301;47.354;8.528;2023-10-08T04:13:47;13.70;77.10
4578;DHT22;2301;47.354;8.528;2023-10-08T04:16:14;13.70;77.30
4578;DHT22;2301;47.354;8.528;2023-10-08T04:18:45;13.70;77.30
4578;DHT22;2301;47.354;8.528;2023-10-08T04:21:17;13.70;77.40
4578;DHT22;2301;47.354;8.528;2023-10-08T04:23:46;13.60;77.30
4578;DHT22;2301;47.354;8.528;2023-10-08T04:26:17;13.60;77.20
4578;DHT22;2301;47.354;8.528;2023-10-08T04:28:49;13.60;77.10
4578;DHT22;2301;47.354;8.528;2023-10-08T04:31:20;13.60;77.20
4578;DHT22;2301;47.354;8.528;2023-10-08T04:33:50;13.60;77.30
4578;DHT22;2301;47.354;8.528;2023-10-08T04:36:19;13.50;77.30
4578;DHT22;2301;47.354;8.528;2023-10-08T04:38:46;13.50;77.70
4578;DHT22;2301;47.354;8.528;2023-10-08T04:41:16;13.60;78.00
4578;DHT22;2301;47.354;8.528;2023-10-08T04:43:45;13.50;77.90
4578;DHT22;2301;47.354;8.528;2023-10-08T04:46:15;13.50;78.00
4578;DHT22;2301;47.354;8.528;2023-10-08T04:49:00;13.50;78.10
4578;DHT22;2301;47.354;8.528;2023-10-08T04:51:32;13.40;78.30
4578;DHT22;2301;47.354;8.528;2023-10-08T04:54:05;13.50;78.40
4578;DHT22;2301;47.354;8.528;2023-10-08T04:56:32;13.40;78.40
4578;DHT22;2301;47.354;8.528;2023-10-08T04:58:59;13.40;78.50
4578;DHT22;2301;47.354;8.528;2023-10-08T05:01:26;13.40;78.50
4578;DHT22;2301;47.354;8.528;2023-10-08T05:04:06;13.40;78.60
4578;DHT22;2301;47.354;8.528;2023-10-08T05:07:03;13.40;78.70
4578;DHT22;2301;47.354;8.528;2023-10-08T05:10:09;13.40;78.90
4578;DHT22;2301;47.354;8.528;2023-10-08T05:12:57;13.30;78.80
4578;DHT22;2301;47.354;8.528;2023-10-08T05:15:41;13.30;78.80
4578;DHT22;2301;47.354;8.528;2023-10-08T05:18:08;13.30;79.00
4578;DHT22;2301;47.354;8.528;2023-10-08T05:20:49;13.30;79.10
4578;DHT22;2301;47.354;8.528;2023-10-08T05:23:26;13.30;79.10
4578;DHT22;2301;47.354;8.528;2023-10-08T05:26:07;13.30;79.20
4578;DHT22;2301;47.354;8.528;2023-10-08T05:28:46;13.20;79.30
4578;DHT22;2301;47.354;8.528;2023-10-08T05:31:26;13.20;79.50
4578;DHT22;2301;47.354;8.528;2023-10-08T05:34:12;13.20;79.70
4578;DHT22;2301;47.354;8.528;2023-10-08T05:36:44;13.20;79.90
4578;DHT22;2301;47.354;8.528;2023-10-08T05:39:38;13.20;80.00
4578;DHT22;2301;47.354;8.528;2023-10-08T05:42:12;13.20;80.10
4578;DHT22;2301;47.354;8.528;2023-10-08T05:44:46;13.30;80.20
4578;DHT22;2301;47.354;8.528;2023-10-08T05:47:31;13.10;80.00
4578;DHT22;2301;47.354;8.528;2023-10-08T05:50:07;13.10;80.10
4578;DHT22;2301;47.354;8.528;2023-10-08T05:52:50;13.10;80.20
4578;DHT22;2301;47.354;8.528;2023-10-08T05:55:29;13.10;80.30
4578;DHT22;2301;47.354;8.528;2023-10-08T05:58:00;13.10;80.60
4578;DHT22;2301;47.354;8.528;2023-10-08T06:00:50;13.10;80.60
4578;DHT22;2301;47.354;8.528;2023-10-08T06:03:33;13.10;80.70
4578;DHT22;2301;47.354;8.528;2023-10-08T06:06:12;13.10;80.90
4578;DHT22;2301;47.354;8.528;2023-10-08T06:09:03;13.10;81.60
4578;DHT22;2301;47.354;8.528;2023-10-08T06:11:48;13.10;81.00
4578;DHT22;2301;47.354;8.528;2023-10-08T06:14:34;13.10;81.10
4578;DHT22;2301;47.354;8.528;2023-10-08T06:17:19;13.10;81.30
4578;DHT22;2301;47.354;8.528;2023-10-08T06:20:21;13.20;81.60
4578;DHT22;2301;47.354;8.528;2023-10-08T06:22:51;13.20;81.70
4578;DHT22;2301;47.354;8.528;2023-10-08T06:25:26;13.20;81.60
4578;DHT22;2301;47.354;8.528;2023-10-08T06:27:55;13.20;81.60
4578;DHT22;2301;47.354;8.528;2023-10-08T06:30:23;13.20;81.60
4578;DHT22;2301;47.354;8.528;2023-10-08T06:32:55;13.20;81.70
4578;DHT22;2301;47.354;8.528;2023-10-08T06:35:22;13.20;81.60
4578;DHT22;2301;47.354;8.528;2023-10-08T06:37:53;13.30;82.40
4578;DHT22;2301;47.354;8.528;2023-10-08T06:40:25;13.30;81.80
4578;DHT22;2301;47.354;8.528;2023-10-08T06:43:15;13.30;81.70
4578;DHT22;2301;47.354;8.528;2023-10-08T06:45:48;13.40;81.80
4578;DHT22;2301;47.354;8.528;2023-10-08T06:48:18;13.40;81.80
4578;DHT22;2301;47.354;8.528;2023-10-08T06:50:46;13.40;82.10
4578;DHT22;2301;47.354;8.528;2023-10-08T06:53:17;13.50;82.30
4578;DHT22;2301;47.354;8.528;2023-10-08T06:55:44;13.50;82.20
4578;DHT22;2301;47.354;8.528;2023-10-08T06:58:15;13.50;82.40
4578;DHT22;2301;47.354;8.528;2023-10-08T07:00:43;13.60;82.60
4578;DHT22;2301;47.354;8.528;2023-10-08T07:03:15;13.60;82.90
4578;DHT22;2301;47.354;8.528;2023-10-08T07:05:44;13.70;83.00
4578;DHT22;2301;47.354;8.528;2023-10-08T07:08:20;13.70;82.70
4578;DHT22;2301;47.354;8.528;2023-10-08T07:10:49;13.80;82.60
4578;DHT22;2301;47.354;8.528;2023-10-08T07:13:18;13.90;82.30
4578;DHT22;2301;47.354;8.528;2023-10-08T07:15:48;13.90;82.10
4578;DHT22;2301;47.354;8.528;2023-10-08T07:18:15;14.00;82.10
4578;DHT22;2301;47.354;8.528;2023-10-08T07:20:52;14.10;82.30
4578;DHT22;2301;47.354;8.528;2023-10-08T07:23:27;14.20;82.80
4578;DHT22;2301;47.354;8.528;2023-10-08T07:26:03;14.20;83.30
4578;DHT22;2301;47.354;8.528;2023-10-08T07:28:38;14.30;83.60
4578;DHT22;2301;47.354;8.528;2023-10-08T07:31:12;14.40;84.00
4578;DHT22;2301;47.354;8.528;2023-10-08T07:33:41;14.50;84.30
4578;DHT22;2301;47.354;8.528;2023-10-08T07:36:10;14.70;84.40
4578;DHT22;2301;47.354;8.528;2023-10-08T07:38:40;14.80;84.70
4578;DHT22;2301;47.354;8.528;2023-10-08T07:41:08;14.90;84.90
4578;DHT22;2301;47.354;8.528;2023-10-08T07:43:40;15.10;84.70
4578;DHT22;2301;47.354;8.528;2023-10-08T07:46:07;15.40;84.40
4578;DHT22;2301;47.354;8.528;2023-10-08T07:48:35;15.70;84.30
4578;DHT22;2301;47.354;8.528;2023-10-08T07:51:01;15.90;83.70
4578;DHT22;2301;47.354;8.528;2023-10-08T07:53:28;16.10;83.00
4578;DHT22;2301;47.354;8.528;2023-10-08T07:56:04;16.40;82.40
4578;DHT22;2301;47.354;8.528;2023-10-08T07:58:32;16.70;81.90
4578;DHT22;2301;47.354;8.528;2023-10-08T08:01:05;17.00;81.40
4578;DHT22;2301;47.354;8.528;2023-10-08T08:03:33;17.30;80.10
4578;DHT22;2301;47.354;8.528;2023-10-08T08:06:02;17.60;79.60
4578;DHT22;2301;47.354;8.528;2023-10-08T08:08:31;17.80;78.60
4578;DHT22;2301;47.354;8.528;2023-10-08T08:10:59;18.10;78.00
4578;DHT22;2301;47.354;8.528;2023-10-08T08:13:32;18.40;77.20
4578;DHT22;2301;47.354;8.528;2023-10-08T08:16:01;18.70;76.40
4578;DHT22;2301;47.354;8.528;2023-10-08T08:18:45;19.00;75.40
4578;DHT22;2301;47.354;8.528;2023-10-08T08:21:15;19.20;74.30
4578;DHT22;2301;47.354;8.528;2023-10-08T08:23:46;19.50;73.50
4578;DHT22;2301;47.354;8.528;2023-10-08T08:26:16;19.80;73.20
4578;DHT22;2301;47.354;8.528;2023-10-08T08:28:55;20.00;71.00
4578;DHT22;2301;47.354;8.528;2023-10-08T08:31:23;20.30;70.30
4578;DHT22;2301;47.354;8.528;2023-10-08T08:33:52;20.50;69.20
4578;DHT22;2301;47.354;8.528;2023-10-08T08:36:22;20.80;68.90
4578;DHT22;2301;47.354;8.528;2023-10-08T08:38:50;21.00;68.80
4578;DHT22;2301;47.354;8.528;2023-10-08T08:41:17;21.30;68.00
4578;DHT22;2301;47.354;8.528;2023-10-08T08:43:47;21.60;67.20
4578;DHT22;2301;47.354;8.528;2023-10-08T08:46:14;21.80;66.30
4578;DHT22;2301;47.354;8.528;2023-10-08T08:48:42;22.00;65.30
4578;DHT22;2301;47.354;8.528;2023-10-08T08:51:12;22.10;64.40
4578;DHT22;2301;47.354;8.528;2023-10-08T08:53:40;22.30;63.90
4578;DHT22;2301;47.354;8.528;2023-10-08T08:56:09;22.60;63.40
4578;DHT22;2301;47.354;8.528;2023-10-08T08:58:36;22.70;62.90
4578;DHT22;2301;47.354;8.528;2023-10-08T09:01:06;22.90;62.30
4578;DHT22;2301;47.354;8.528;2023-10-08T09:03:35;23.10;61.40
4578;DHT22;2301;47.354;8.528;2023-10-08T09:06:03;23.20;61.50
4578;DHT22;2301;47.354;8.528;2023-10-08T09:08:35;23.40;61.00
4578;DHT22;2301;47.354;8.528;2023-10-08T09:11:02;23.60;60.30
4578;DHT22;2301;47.354;8.528;2023-10-08T09:13:31;23.80;59.90
4578;DHT22;2301;47.354;8.528;2023-10-08T09:16:07;23.90;59.80
4578;DHT22;2301;47.354;8.528;2023-10-08T09:18:34;24.10;59.40
4578;DHT22;2301;47.354;8.528;2023-10-08T09:21:08;24.30;59.20
4578;DHT22;2301;47.354;8.528;2023-10-08T09:23:41;24.50;59.00
4578;DHT22;2301;47.354;8.528;2023-10-08T09:26:13;24.60;58.70
4578;DHT22;2301;47.354;8.528;2023-10-08T09:28:44;24.70;58.20
4578;DHT22;2301;47.354;8.528;2023-10-08T09:31:13;24.90;58.40
4578;DHT22;2301;47.354;8.528;2023-10-08T09:33:40;25.00;58.40
4578;DHT22;2301;47.354;8.528;2023-10-08T09:36:08;25.30;57.80
4578;DHT22;2301;47.354;8.528;2023-10-08T09:38:36;25.40;57.60
4578;DHT22;2301;47.354;8.528;2023-10-08T09:41:05;25.50;56.70
4578;DHT22;2301;47.354;8.528;2023-10-08T09:43:34;25.60;56.50
4578;DHT22;2301;47.354;8.528;2023-10-08T09:46:09;25.70;56.10
4578;DHT22;2301;47.354;8.528;2023-10-08T09:48:38;25.90;56.30
4578;DHT22;2301;47.354;8.528;2023-10-08T09:51:10;26.10;55.70
4578;DHT22;2301;47.354;8.528;2023-10-08T09:53:45;26.20;55.00
4578;DHT22;2301;47.354;8.528;2023-10-08T09:56:15;26.20;54.90
4578;DHT22;2301;47.354;8.528;2023-10-08T09:58:44;26.30;55.00
4578;DHT22;2301;47.354;8.528;2023-10-08T10:01:13;26.50;54.10
4578;DHT22;2301;47.354;8.528;2023-10-08T10:03:44;26.70;53.80
4578;DHT22;2301;47.354;8.528;2023-10-08T10:06:13;26.90;53.20
4578;DHT22;2301;47.354;8.528;2023-10-08T10:08:42;27.00;52.80
4578;DHT22;2301;47.354;8.528;2023-10-08T10:11:09;27.10;52.80
4578;DHT22;2301;47.354;8.528;2023-10-08T10:13:42;27.10;53.00
4578;DHT22;2301;47.354;8.528;2023-10-08T10:16:10;27.20;52.20
4578;DHT22;2301;47.354;8.528;2023-10-08T10:18:38;27.30;52.70
4578;DHT22;2301;47.354;8.528;2023-10-08T10:21:25;27.30;52.70
4578;DHT22;2301;47.354;8.528;2023-10-08T10:23:54;27.20;51.60
4578;DHT22;2301;47.354;8.528;2023-10-08T10:26:25;27.20;51.90
4578;DHT22;2301;47.354;8.528;2023-10-08T10:29:21;27.30;52.10
4578;DHT22;2301;47.354;8.528;2023-10-08T10:31:52;27.50;51.50
4578;DHT22;2301;47.354;8.528;2023-10-08T10:34:22;27.60;51.30
4578;DHT22;2301;47.354;8.528;2023-10-08T10:36:51;27.70;51.50
4578;DHT22;2301;47.354;8.528;2023-10-08T10:39:24;27.70;50.90
4578;DHT22;2301;47.354;8.528;2023-10-08T10:41:58;27.70;51.10
4578;DHT22;2301;47.354;8.528;2023-10-08T10:44:29;27.70;51.20
4578;DHT22;2301;47.354;8.528;2023-10-08T10:46:57;27.70;51.50
4578;DHT22;2301;47.354;8.528;2023-10-08T10:49:41;27.80;51.30
4578;DHT22;2301;47.354;8.528;2023-10-08T10:52:22;27.90;50.90
4578;DHT22;2301;47.354;8.528;2023-10-08T10:55:01;27.90;50.90
4578;DHT22;2301;47.354;8.528;2023-10-08T10:57:46;27.70;52.60
4578;DHT22;2301;47.354;8.528;2023-10-08T11:00:22;27.70;51.40
4578;DHT22;2301;47.354;8.528;2023-10-08T11:03:13;27.60;50.90
4578;DHT22;2301;47.354;8.528;2023-10-08T11:05:47;27.60;51.20
4578;DHT22;2301;47.354;8.528;2023-10-08T11:08:17;27.60;50.00
4578;DHT22;2301;47.354;8.528;2023-10-08T11:10:47;27.50;49.90
4578;DHT22;2301;47.354;8.528;2023-10-08T11:13:17;27.50;48.90
4578;DHT22;2301;47.354;8.528;2023-10-08T11:15:48;27.40;48.70
4578;DHT22;2301;47.354;8.528;2023-10-08T11:18:19;27.30;49.30
4578;DHT22;2301;47.354;8.528;2023-10-08T11:20:47;27.30;49.40
4578;DHT22;2301;47.354;8.528;2023-10-08T11:23:33;27.40;48.80
4578;DHT22;2301;47.354;8.528;2023-10-08T11:26:01;27.30;48.10
4578;DHT22;2301;47.354;8.528;2023-10-08T11:28:29;27.20;48.10
4578;DHT22;2301;47.354;8.528;2023-10-08T11:31:01;27.20;48.30
4578;DHT22;2301;47.354;8.528;2023-10-08T11:33:35;27.30;48.70
4578;DHT22;2301;47.354;8.528;2023-10-08T11:36:04;27.40;48.60
4578;DHT22;2301;47.354;8.528;2023-10-08T11:38:39;27.50;49.50
4578;DHT22;2301;47.354;8.528;2023-10-08T11:41:11;27.60;48.40
4578;DHT22;2301;47.354;8.528;2023-10-08T11:43:47;27.70;48.50
4578;DHT22;2301;47.354;8.528;2023-10-08T11:46:21;27.70;48.90
4578;DHT22;2301;47.354;8.528;2023-10-08T11:48:51;27.70;48.70
4578;DHT22;2301;47.354;8.528;2023-10-08T11:51:18;27.70;48.40
4578;DHT22;2301;47.354;8.528;2023-10-08T11:53:49;27.80;48.80
4578;DHT22;2301;47.354;8.528;2023-10-08T11:56:17;27.80;48.60
4578;DHT22;2301;47.354;8.528;2023-10-08T11:58:47;27.80;48.50
4578;DHT22;2301;47.354;8.528;2023-10-08T12:01:18;27.80;48.50
4578;DHT22;2301;47.354;8.528;2023-10-08T12:03:51;27.70;48.40
4578;DHT22;2301;47.354;8.528;2023-10-08T12:06:25;27.70;49.40
4578;DHT22;2301;47.354;8.528;2023-10-08T12:08:55;27.70;48.40
4578;DHT22;2301;47.354;8.528;2023-10-08T12:11:24;27.70;46.50
4578;DHT22;2301;47.354;8.528;2023-10-08T12:13:57;27.70;47.20
4578;DHT22;2301;47.354;8.528;2023-10-08T12:16:25;27.70;48.40
4578;DHT22;2301;47.354;8.528;2023-10-08T12:18:56;27.80;48.60
4578;DHT22;2301;47.354;8.528;2023-10-08T12:21:25;27.80;48.20
4578;DHT22;2301;47.354;8.528;2023-10-08T12:23:55;27.80;47.80
4578;DHT22;2301;47.354;8.528;2023-10-08T12:26:22;27.90;47.50
4578;DHT22;2301;47.354;8.528;2023-10-08T12:28:49;28.00;48.00
4578;DHT22;2301;47.354;8.528;2023-10-08T12:31:17;28.00;48.20
4578;DHT22;2301;47.354;8.528;2023-10-08T12:33:47;28.00;47.70
4578;DHT22;2301;47.354;8.528;2023-10-08T12:36:16;28.10;48.10
4578;DHT22;2301;47.354;8.528;2023-10-08T12:38:43;28.20;49.10
4578;DHT22;2301;47.354;8.528;2023-10-08T12:41:10;28.20;49.40
4578;DHT22;2301;47.354;8.528;2023-10-08T12:43:39;28.20;49.20
4578;DHT22;2301;47.354;8.528;2023-10-08T12:46:08;28.20;48.70
4578;DHT22;2301;47.354;8.528;2023-10-08T12:48:43;28.20;48.90
4578;DHT22;2301;47.354;8.528;2023-10-08T12:51:14;28.20;49.20
4578;DHT22;2301;47.354;8.528;2023-10-08T12:53:43;28.20;49.00
4578;DHT22;2301;47.354;8.528;2023-10-08T12:56:16;28.20;48.10
4578;DHT22;2301;47.354;8.528;2023-10-08T12:58:47;28.10;47.70
4578;DHT22;2301;47.354;8.528;2023-10-08T13:01:15;28.00;47.90
4578;DHT22;2301;47.354;8.528;2023-10-08T13:03:43;28.00;47.90
4578;DHT22;2301;47.354;8.528;2023-10-08T13:06:13;27.90;47.60
4578;DHT22;2301;47.354;8.528;2023-10-08T13:08:49;27.90;46.50
4578;DHT22;2301;47.354;8.528;2023-10-08T13:11:18;27.90;46.20
4578;DHT22;2301;47.354;8.528;2023-10-08T13:13:49;27.80;47.00
4578;DHT22;2301;47.354;8.528;2023-10-08T13:16:16;27.80;46.60
4578;DHT22;2301;47.354;8.528;2023-10-08T13:18:42;27.90;47.60
4578;DHT22;2301;47.354;8.528;2023-10-08T13:21:09;27.90;47.80
4578;DHT22;2301;47.354;8.528;2023-10-08T13:23:37;27.90;47.80
4578;DHT22;2301;47.354;8.528;2023-10-08T13:26:06;27.90;47.80
4578;DHT22;2301;47.354;8.528;2023-10-08T13:28:34;28.00;48.90
4578;DHT22;2301;47.354;8.528;2023-10-08T13:31:01;28.00;49.10
4578;DHT22;2301;47.354;8.528;2023-10-08T13:33:35;28.00;48.80
4578;DHT22;2301;47.354;8.528;2023-10-08T13:36:05;27.90;48.80
4578;DHT22;2301;47.354;8.528;2023-10-08T13:38:34;27.90;49.50
4578;DHT22;2301;47.354;8.528;2023-10-08T13:41:01;27.90;49.20
4578;DHT22;2301;47.354;8.528;2023-10-08T13:43:42;27.90;49.00
4578;DHT22;2301;47.354;8.528;2023-10-08T13:46:11;27.90;48.50
4578;DHT22;2301;47.354;8.528;2023-10-08T13:48:40;27.90;47.40
4578;DHT22;2301;47.354;8.528;2023-10-08T13:51:08;27.80;47.50
4578;DHT22;2301;47.354;8.528;2023-10-08T13:53:40;27.70;47.80
4578;DHT22;2301;47.354;8.528;2023-10-08T13:56:10;27.70;47.30
4578;DHT22;2301;47.354;8.528;2023-10-08T13:58:38;27.50;47.50
4578;DHT22;2301;47.354;8.528;2023-10-08T14:01:08;27.40;47.40
4578;DHT22;2301;47.354;8.528;2023-10-08T14:03:45;27.20;48.40
4578;DHT22;2301;47.354;8.528;2023-10-08T14:06:12;27.10;47.70
4578;DHT22;2301;47.354;8.528;2023-10-08T14:08:39;27.00;47.60
4578;DHT22;2301;47.354;8.528;2023-10-08T14:11:09;26.90;47.70
4578;DHT22;2301;47.354;8.528;2023-10-08T14:13:39;26.80;48.60
4578;DHT22;2301;47.354;8.528;2023-10-08T14:16:09;26.80;48.80
4578;DHT22;2301;47.354;8.528;2023-10-08T14:18:37;26.70;50.30
4578;DHT22;2301;47.354;8.528;2023-10-08T14:21:07;26.70;50.10
4578;DHT22;2301;47.354;8.528;2023-10-08T14:23:36;26.70;49.90
4578;DHT22;2301;47.354;8.528;2023-10-08T14:26:06;26.70;50.00
4578;DHT22;2301;47.354;8.528;2023-10-08T14:28:33;26.80;49.60
4578;DHT22;2301;47.354;8.528;2023-10-08T14:31:11;26.80;49.30
4578;DHT22;2301;47.354;8.528;2023-10-08T14:33:41;26.90;48.20
4578;DHT22;2301;47.354;8.528;2023-10-08T14:36:21;26.90;48.50
4578;DHT22;2301;47.354;8.528;2023-10-08T14:39:06;26.90;49.40
4578;DHT22;2301;47.354;8.528;2023-10-08T14:41:50;26.90;49.90
4578;DHT22;2301;47.354;8.528;2023-10-08T14:44:34;26.90;50.30
4578;DHT22;2301;47.354;8.528;2023-10-08T14:47:04;26.90;51.00
4578;DHT22;2301;47.354;8.528;2023-10-08T14:49:32;26.90;51.50
4578;DHT22;2301;47.354;8.528;2023-10-08T14:52:00;26.90;51.20
4578;DHT22;2301;47.354;8.528;2023-10-08T14:54:29;26.90;51.50
4578;DHT22;2301;47.354;8.528;2023-10-08T14:56:59;26.90;52.30
4578;DHT22;2301;47.354;8.528;2023-10-08T14:59:28;26.90;53.30
4578;DHT22;2301;47.354;8.528;2023-10-08T15:01:56;26.80;53.90
4578;DHT22;2301;47.354;8.528;2023-10-08T15:04:25;26.80;54.20
4578;DHT22;2301;47.354;8.528;2023-10-08T15:06:54;26.70;53.50
4578;DHT22;2301;47.354;8.528;2023-10-08T15:09:22;26.60;53.50
4578;DHT22;2301;47.354;8.528;2023-10-08T15:11:49;26.50;53.70
4578;DHT22;2301;47.354;8.528;2023-10-08T15:14:18;26.40;53.40
4578;DHT22;2301;47.354;8.528;2023-10-08T15:16:45;26.30;52.70
4578;DHT22;2301;47.354;8.528;2023-10-08T15:19:18;26.10;52.20
4578;DHT22;2301;47.354;8.528;2023-10-08T15:21:48;26.00;52.10
4578;DHT22;2301;47.354;8.528;2023-10-08T15:24:17;25.90;51.80
4578;DHT22;2301;47.354;8.528;2023-10-08T15:26:47;25.90;51.70
4578;DHT22;2301;47.354;8.528;2023-10-08T15:29:14;25.80;51.60
4578;DHT22;2301;47.354;8.528;2023-10-08T15:31:41;25.80;52.20
4578;DHT22;2301;47.354;8.528;2023-10-08T15:34:08;25.80;53.30
4578;DHT22;2301;47.354;8.528;2023-10-08T15:36:38;25.80;54.60
4578;DHT22;2301;47.354;8.528;2023-10-08T15:39:06;25.80;55.50
4578;DHT22;2301;47.354;8.528;2023-10-08T15:41:36;25.80;56.10
4578;DHT22;2301;47.354;8.528;2023-10-08T15:44:03;25.80;56.70
4578;DHT22;2301;47.354;8.528;2023-10-08T15:46:33;25.80;57.20
4578;DHT22;2301;47.354;8.528;2023-10-08T15:49:05;25.70;57.50
4578;DHT22;2301;47.354;8.528;2023-10-08T15:51:36;25.70;57.80
4578;DHT22;2301;47.354;8.528;2023-10-08T15:54:07;25.60;58.20
4578;DHT22;2301;47.354;8.528;2023-10-08T15:56:34;25.50;58.70
4578;DHT22;2301;47.354;8.528;2023-10-08T15:59:01;25.50;59.10
4578;DHT22;2301;47.354;8.528;2023-10-08T16:01:29;25.40;59.20
4578;DHT22;2301;47.354;8.528;2023-10-08T16:03:56;25.30;59.30
4578;DHT22;2301;47.354;8.528;2023-10-08T16:06:23;25.20;59.20
4578;DHT22;2301;47.354;8.528;2023-10-08T16:08:50;25.10;59.00
4578;DHT22;2301;47.354;8.528;2023-10-08T16:11:18;25.10;59.00
4578;DHT22;2301;47.354;8.528;2023-10-08T16:13:45;25.00;59.80
4578;DHT22;2301;47.354;8.528;2023-10-08T16:16:12;24.80;60.00
4578;DHT22;2301;47.354;8.528;2023-10-08T16:18:39;24.80;60.40
4578;DHT22;2301;47.354;8.528;2023-10-08T16:21:07;24.70;60.40
4578;DHT22;2301;47.354;8.528;2023-10-08T16:23:36;24.60;61.00
4578;DHT22;2301;47.354;8.528;2023-10-08T16:26:03;24.50;61.80
4578;DHT22;2301;47.354;8.528;2023-10-08T16:28:33;24.40;61.20
4578;DHT22;2301;47.354;8.528;2023-10-08T16:31:00;24.30;61.10